createdAt,value
2023-02-28T09:32:13.563Z,4.83
2023-02-28T09:34:16.933Z,4.83
2023-02-28T09:36:19.957Z,4.29
2023-02-28T09:38:22.340Z,4.51
2023-02-28T09:40:26.828Z,4.80
2023-02-28T09:42:34.611Z,5.14
2023-02-28T09:44:42.366Z,5.30
2023-02-28T09:46:53.674Z,4.34
2023-02-28T09:48:57.774Z,4.21
2023-02-28T09:51:04.391Z,3.91
2023-02-28T09:53:21.004Z,4.36
2023-02-28T09:55:35.240Z,4.97
2023-02-28T09:57:42.445Z,5.02
2023-02-28T09:59:51.142Z,5.49
2023-02-28T10:02:12.685Z,5.37
2023-02-28T10:04:30.554Z,5.44
2023-02-28T10:06:51.205Z,5.64
2023-02-28T10:09:02.580Z,5.73
2023-02-28T10:11:09.016Z,4.50
2023-02-28T10:13:20.371Z,5.26
2023-02-28T10:15:27.355Z,5.49
2023-02-28T10:17:54.771Z,5.65
2023-02-28T10:20:12.670Z,5.41
2023-02-28T10:22:23.352Z,4.70
2023-02-28T10:24:40.439Z,5.83
2023-02-28T10:26:46.203Z,5.75
2023-02-28T10:28:48.598Z,5.76
2023-02-28T10:30:53.874Z,5.53
2023-02-28T10:32:56.745Z,5.91
2023-02-28T10:34:59.628Z,6.05
2023-02-28T10:37:08.331Z,5.75
2023-02-28T10:39:45.068Z,5.71
2023-02-28T10:41:47.419Z,6.00
2023-02-28T10:43:50.209Z,6.51
2023-02-28T10:46:00.018Z,6.19
2023-02-28T10:48:05.401Z,6.25
2023-02-28T10:50:53.229Z,6.34
2023-02-28T10:52:56.182Z,6.77
2023-02-28T10:55:16.811Z,6.41
2023-02-28T10:57:29.830Z,6.45
2023-02-28T10:59:32.523Z,6.90
2023-02-28T11:01:46.496Z,6.99
2023-02-28T11:03:50.072Z,6.76
2023-02-28T11:05:52.435Z,7.32
2023-02-28T11:08:12.287Z,7.06
2023-02-28T11:10:22.094Z,6.62
2023-02-28T11:12:29.268Z,6.70
2023-02-28T11:14:48.650Z,6.43
2023-02-28T11:16:52.702Z,6.74
2023-02-28T11:18:56.531Z,6.16
2023-02-28T11:21:02.522Z,7.12
2023-02-28T11:23:06.065Z,6.56
2023-02-28T11:25:24.117Z,6.58
2023-02-28T11:27:32.481Z,6.86
2023-02-28T11:29:36.047Z,6.96
2023-02-28T11:31:38.502Z,7.15
2023-02-28T11:33:52.657Z,7.63
2023-02-28T11:36:03.100Z,7.15
2023-02-28T11:38:13.823Z,7.11
2023-02-28T11:40:18.308Z,7.00
2023-02-28T11:42:41.337Z,7.10
2023-02-28T11:45:12.372Z,7.23
2023-02-28T11:47:29.992Z,7.40
2023-02-28T11:49:47.798Z,7.39
2023-02-28T11:51:59.305Z,7.38
2023-02-28T11:54:14.164Z,7.01
2023-02-28T11:56:30.062Z,6.76
2023-02-28T11:58:48.303Z,7.47
2023-02-28T12:01:00.050Z,7.83
2023-02-28T12:03:23.874Z,8.20
2023-02-28T12:05:31.870Z,8.06
2023-02-28T12:07:52.911Z,8.33
2023-02-28T12:10:34.742Z,8.45
2023-02-28T12:12:42.871Z,7.93
2023-02-28T12:15:12.836Z,8.86
2023-02-28T12:17:18.314Z,8.82
2023-02-28T12:19:44.769Z,8.57
2023-02-28T12:22:09.417Z,9.25
2023-02-28T12:24:51.590Z,10.63
2023-02-28T12:26:56.025Z,11.28
2023-02-28T12:29:48.794Z,10.78
2023-02-28T12:32:05.032Z,10.10
2023-02-28T12:34:13.272Z,10.12
2023-02-28T12:36:20.430Z,11.04
2023-02-28T12:38:30.553Z,10.53
2023-02-28T12:40:47.287Z,10.39
2023-02-28T12:43:06.977Z,10.41
2023-02-28T12:45:19.921Z,10.45
2023-02-28T12:47:22.308Z,10.98
2023-02-28T12:49:43.049Z,10.89
2023-02-28T12:51:48.057Z,10.18
2023-02-28T12:54:17.845Z,9.18
2023-02-28T12:56:35.446Z,9.06
2023-02-28T12:58:46.488Z,8.52
2023-02-28T13:01:02.083Z,9.64
2023-02-28T13:03:19.801Z,9.60
2023-02-28T13:05:49.941Z,9.77
2023-02-28T13:08:09.683Z,10.41
2023-02-28T13:10:12.303Z,11.37
2023-02-28T13:12:17.633Z,11.60
2023-02-28T13:14:36.661Z,11.33
2023-02-28T13:17:13.630Z,10.97
2023-02-28T13:19:19.702Z,10.63
2023-02-28T13:21:25.100Z,10.97
2023-02-28T13:23:48.275Z,9.79
2023-02-28T13:25:54.524Z,9.35
2023-02-28T13:27:58.014Z,10.39
2023-02-28T13:30:01.550Z,10.91
2023-02-28T13:32:06.995Z,10.51
2023-02-28T13:34:17.366Z,10.30
2023-02-28T13:36:19.628Z,9.90
2023-02-28T13:38:35.775Z,10.16
2023-02-28T13:40:38.915Z,10.02
2023-02-28T13:42:47.659Z,9.53
2023-02-28T13:45:02.745Z,9.30
2023-02-28T13:47:05.081Z,9.34
2023-02-28T13:49:39.708Z,8.98
2023-02-28T13:51:50.913Z,9.62
2023-02-28T13:54:05.002Z,9.56
2023-02-28T13:56:31.330Z,9.01
2023-02-28T13:58:44.320Z,8.29
2023-02-28T14:01:22.312Z,8.17
2023-02-28T14:03:43.051Z,8.00
2023-02-28T14:05:45.966Z,8.31
2023-02-28T14:07:51.763Z,8.11
2023-02-28T14:10:06.388Z,8.08
2023-02-28T14:12:46.539Z,7.85
2023-02-28T14:14:48.990Z,7.62
2023-02-28T14:16:52.184Z,8.30
2023-02-28T14:19:02.713Z,8.19
2023-02-28T14:21:13.115Z,8.29
2023-02-28T14:23:34.217Z,7.91
2023-02-28T14:25:46.623Z,7.45
2023-02-28T14:27:51.205Z,7.35
2023-02-28T14:30:25.205Z,7.77
2023-02-28T14:32:50.603Z,7.93
2023-02-28T14:35:16.403Z,7.05
2023-02-28T14:37:27.998Z,6.79
2023-02-28T14:39:32.639Z,6.88
2023-02-28T14:41:39.907Z,6.88
2023-02-28T14:43:52.298Z,7.03
2023-02-28T14:46:03.164Z,6.57
2023-02-28T14:48:11.082Z,7.00
2023-02-28T14:50:36.318Z,7.00
2023-02-28T14:52:38.704Z,7.33
2023-02-28T14:54:42.345Z,7.47
2023-02-28T14:56:45.026Z,6.80
2023-02-28T14:58:53.613Z,6.91
2023-02-28T15:00:58.790Z,7.29
2023-02-28T15:03:18.306Z,7.34
2023-02-28T15:05:23.886Z,6.77
2023-02-28T15:07:30.002Z,6.98
2023-02-28T15:09:32.805Z,7.00
2023-02-28T15:11:36.501Z,7.05
2023-02-28T15:13:46.130Z,7.01
2023-02-28T15:16:02.979Z,7.05
2023-02-28T15:18:07.274Z,6.60
2023-02-28T15:20:14.198Z,6.66
2023-02-28T15:22:30.036Z,6.50
2023-02-28T15:24:43.370Z,6.39
2023-02-28T15:26:50.836Z,6.46
2023-02-28T15:29:00.393Z,6.49
2023-02-28T15:31:19.469Z,6.27
2023-02-28T15:33:24.825Z,6.24
2023-02-28T15:35:28.820Z,6.31
2023-02-28T15:37:34.546Z,6.08
2023-02-28T15:39:45.086Z,5.94
2023-02-28T15:41:47.977Z,6.01
2023-02-28T15:43:50.425Z,5.91
2023-02-28T15:46:05.712Z,5.95
2023-02-28T15:48:20.054Z,5.65
2023-02-28T15:50:22.525Z,5.92
2023-02-28T15:52:42.821Z,5.76
2023-02-28T15:54:46.395Z,5.80
2023-02-28T15:56:53.924Z,5.88
2023-02-28T15:59:08.541Z,5.90
2023-02-28T16:01:24.653Z,5.86
2023-02-28T16:03:41.804Z,5.78
2023-02-28T16:05:44.355Z,5.78
2023-02-28T16:07:49.990Z,5.83
2023-02-28T16:09:52.873Z,5.83
2023-02-28T16:11:58.469Z,5.80
2023-02-28T16:14:03.105Z,5.85
2023-02-28T16:16:06.070Z,5.78
2023-02-28T16:18:11.504Z,5.68
2023-02-28T16:20:18.474Z,5.74
2023-02-28T16:22:21.363Z,5.48
2023-02-28T16:24:24.069Z,5.39
2023-02-28T16:26:28.463Z,5.42
2023-02-28T16:28:35.049Z,5.39
2023-02-28T16:30:37.611Z,5.44
2023-02-28T16:32:40.371Z,5.40
2023-02-28T16:34:44.897Z,5.47
2023-02-28T16:36:49.259Z,5.49
2023-02-28T16:38:53.196Z,5.47
2023-02-28T16:41:00.110Z,5.50
2023-02-28T16:43:14.639Z,5.56
2023-02-28T16:45:26.541Z,5.37
2023-02-28T16:47:30.827Z,5.20
2023-02-28T16:49:33.586Z,5.29
2023-02-28T16:51:36.821Z,5.34
2023-02-28T16:53:40.541Z,5.38
2023-02-28T16:55:43.280Z,5.24
2023-02-28T16:57:53.162Z,5.30
2023-02-28T16:59:56.379Z,5.32
2023-02-28T17:01:59.425Z,5.31
2023-02-28T17:04:02.040Z,5.20
2023-02-28T17:06:17.678Z,5.37
2023-02-28T17:08:20.829Z,5.31
2023-02-28T17:10:26.189Z,5.26
2023-02-28T17:12:29.348Z,5.34
2023-02-28T17:14:33.348Z,5.37
2023-02-28T17:16:40.942Z,5.24
2023-02-28T17:18:44.107Z,5.30
2023-02-28T17:20:47.649Z,5.25
2023-02-28T17:22:57.559Z,5.52
2023-02-28T17:25:00.693Z,5.38
2023-02-28T17:27:03.740Z,5.14
2023-02-28T17:29:18.110Z,5.25
2023-02-28T17:31:24.257Z,5.27
2023-02-28T17:33:28.927Z,5.20
2023-02-28T17:35:31.869Z,5.31
2023-02-28T17:37:35.671Z,5.31
2023-02-28T17:39:39.144Z,5.10
2023-02-28T17:41:42.982Z,5.24
2023-02-28T17:43:46.271Z,5.44
2023-02-28T17:45:48.896Z,5.29
2023-02-28T17:47:51.938Z,5.27
2023-02-28T17:49:54.990Z,5.22
2023-02-28T17:51:58.480Z,5.30
2023-02-28T17:54:01.891Z,5.36
2023-02-28T17:56:06.915Z,5.24
2023-02-28T17:58:12.758Z,5.16
2023-02-28T18:00:18.825Z,5.23
2023-02-28T18:02:23.328Z,5.24
2023-02-28T18:04:28.574Z,5.37
2023-02-28T18:06:51.265Z,5.31
2023-02-28T18:08:55.108Z,5.20
2023-02-28T18:10:58.402Z,5.22
2023-02-28T18:13:01.277Z,5.21
2023-02-28T18:15:05.497Z,5.32
2023-02-28T18:17:08.256Z,5.13
2023-02-28T18:19:15.461Z,5.08
2023-02-28T18:21:21.880Z,5.09
2023-02-28T18:23:25.531Z,4.99
2023-02-28T18:25:29.208Z,4.93
2023-02-28T18:27:32.988Z,5.09
2023-02-28T18:29:39.617Z,5.04
2023-02-28T18:31:44.318Z,5.03
2023-02-28T18:33:52.855Z,5.01
2023-02-28T18:35:57.076Z,5.08
2023-02-28T18:38:00.095Z,5.19
2023-02-28T18:40:06.816Z,5.08
2023-02-28T18:42:11.182Z,4.88
2023-02-28T18:44:21.252Z,4.94
2023-02-28T18:46:25.746Z,5.02
2023-02-28T18:48:28.997Z,4.95
2023-02-28T18:50:32.648Z,4.84
2023-02-28T18:52:36.707Z,5.01
2023-02-28T18:54:40.516Z,4.91
2023-02-28T18:56:45.540Z,4.91
2023-02-28T18:58:50.043Z,4.96
2023-02-28T19:00:53.233Z,4.98
2023-02-28T19:02:56.978Z,5.10
2023-02-28T19:05:03.817Z,5.01
2023-02-28T19:07:07.557Z,4.93
2023-02-28T19:09:11.097Z,4.95
2023-02-28T19:11:25.220Z,5.16
2023-02-28T19:13:29.400Z,5.08
2023-02-28T19:15:35.092Z,5.13
2023-02-28T19:17:39.913Z,5.10
2023-02-28T19:19:43.331Z,5.13
2023-02-28T19:21:50.659Z,5.18
2023-02-28T19:23:54.823Z,5.28
2023-02-28T19:25:58.545Z,5.30
2023-02-28T19:28:01.977Z,5.01
2023-02-28T19:30:06.928Z,5.05
2023-02-28T19:32:12.032Z,5.15
2023-02-28T19:34:15.676Z,5.13
2023-02-28T19:36:22.664Z,4.89
2023-02-28T19:38:25.885Z,4.89
2023-02-28T19:40:29.126Z,4.97
2023-02-28T19:42:34.992Z,4.83
2023-02-28T19:44:39.777Z,4.84
2023-02-28T19:46:43.828Z,4.94
2023-02-28T19:48:49.267Z,4.59
2023-02-28T19:51:09.395Z,4.76
2023-02-28T19:53:12.489Z,4.79
2023-02-28T19:55:17.834Z,5.02
2023-02-28T19:57:20.987Z,4.90
2023-02-28T19:59:35.926Z,4.94
2023-02-28T20:01:42.052Z,4.96
2023-02-28T20:03:51.836Z,4.98
2023-02-28T20:06:10.387Z,5.00
2023-02-28T20:08:15.698Z,4.83
2023-02-28T20:10:20.233Z,5.03
2023-02-28T20:12:24.989Z,5.13
2023-02-28T20:14:28.981Z,5.04
2023-02-28T20:16:33.203Z,4.99
2023-02-28T20:18:38.741Z,4.93
2023-02-28T20:20:42.733Z,4.92
2023-02-28T20:22:46.589Z,4.93
2023-02-28T20:24:49.583Z,4.97
2023-02-28T20:26:54.252Z,4.93
2023-02-28T20:28:58.401Z,5.01
2023-02-28T20:31:02.128Z,4.88
2023-02-28T20:33:05.786Z,5.02
2023-02-28T20:35:11.924Z,4.99
2023-02-28T20:37:16.377Z,4.80
2023-02-28T20:39:20.517Z,4.89
2023-02-28T20:41:24.446Z,5.00
2023-02-28T20:43:28.484Z,4.80
2023-02-28T20:45:32.515Z,4.86
2023-02-28T20:47:36.209Z,4.61
2023-02-28T20:49:39.563Z,4.71
2023-02-28T20:51:42.762Z,4.56
2023-02-28T20:53:46.516Z,4.70
2023-02-28T20:56:12.120Z,4.72
2023-02-28T20:58:15.407Z,4.80
2023-02-28T21:00:19.535Z,4.88
2023-02-28T21:02:23.166Z,4.86
2023-02-28T21:04:26.279Z,4.77
2023-02-28T21:06:33.410Z,4.91
2023-02-28T21:08:37.855Z,4.76
2023-02-28T21:10:40.687Z,4.65
2023-02-28T21:12:44.135Z,4.70
2023-02-28T21:14:46.623Z,4.56
2023-02-28T21:16:49.187Z,4.59
2023-02-28T21:18:53.652Z,4.70
2023-02-28T21:21:02.011Z,4.70
2023-02-28T21:23:07.094Z,4.64
2023-02-28T21:25:09.744Z,4.76
2023-02-28T21:27:12.736Z,4.79
2023-02-28T21:29:16.535Z,4.74
2023-02-28T21:31:21.792Z,4.70
2023-02-28T21:33:24.440Z,4.77
2023-02-28T21:35:27.038Z,4.84
2023-02-28T21:37:30.217Z,4.72
2023-02-28T21:39:32.610Z,4.81
2023-02-28T21:41:35.444Z,4.71
2023-02-28T21:43:38.878Z,4.66
2023-02-28T21:45:41.234Z,4.69
2023-02-28T21:47:43.599Z,4.60
2023-02-28T21:49:46.198Z,4.68
2023-02-28T21:51:48.715Z,4.54
2023-02-28T21:53:51.632Z,4.64
2023-02-28T21:55:54.275Z,4.75
2023-02-28T21:57:56.674Z,4.53
2023-02-28T21:59:59.327Z,4.79
2023-02-28T22:02:02.178Z,4.85
2023-02-28T22:04:07.274Z,4.65
2023-02-28T22:06:15.566Z,4.72
2023-02-28T22:08:17.860Z,4.77
2023-02-28T22:10:20.617Z,4.86
2023-02-28T22:12:22.973Z,4.85
2023-02-28T22:14:25.622Z,4.74
2023-02-28T22:16:33.192Z,4.72
2023-02-28T22:18:39.232Z,4.84
2023-02-28T22:20:41.513Z,4.72
2023-02-28T22:22:44.094Z,4.85
2023-02-28T22:24:46.383Z,4.72
2023-02-28T22:26:49.848Z,4.75
2023-02-28T22:28:52.443Z,4.69
2023-02-28T22:30:54.752Z,4.60
2023-02-28T22:32:57.096Z,4.85
2023-02-28T22:34:59.692Z,4.65
2023-02-28T22:37:01.997Z,4.58
2023-02-28T22:39:05.280Z,4.65
2023-02-28T22:41:08.324Z,4.75
2023-02-28T22:43:11.334Z,4.79
2023-02-28T22:45:13.722Z,4.91
2023-02-28T22:47:16.616Z,4.78
2023-02-28T22:49:18.921Z,4.89
2023-02-28T22:51:24.090Z,4.72
2023-02-28T22:53:26.689Z,4.83
2023-02-28T22:55:28.968Z,4.81
2023-02-28T22:57:31.268Z,4.88
2023-02-28T22:59:33.887Z,4.86
2023-02-28T23:01:36.323Z,4.79
2023-02-28T23:03:39.695Z,4.89
2023-02-28T23:05:42.326Z,4.92
2023-02-28T23:07:44.733Z,4.55
